sensor_id;sensor_type;location;lat;lon;timestamp;P1;durP1;ratioP1;P2;durP2;ratioP2
34571;SDS011;20808;48.974;8.452;2022-12-18T00:02:06;77.03;;;35.00;;
34571;SDS011;20808;48.974;8.452;2022-12-18T00:04:33;90.10;;;39.00;;
34571;SDS011;20808;48.974;8.452;2022-12-18T00:07:00;86.53;;;37.20;;
34571;SDS011;20808;48.974;8.452;2022-12-18T00:09:27;84.60;;;37.40;;
34571;SDS011;20808;48.974;8.452;2022-12-18T00:11:53;79.87;;;36.23;;
34571;SDS011;20808;48.974;8.452;2022-12-18T00:14:21;89.20;;;39.33;;
34571;SDS011;20808;48.974;8.452;2022-12-18T00:16:48;83.53;;;39.20;;
34571;SDS011;20808;48.974;8.452;2022-12-18T00:19:15;83.30;;;37.97;;
34571;SDS011;20808;48.974;8.452;2022-12-18T00:21:42;81.43;;;35.97;;
34571;SDS011;20808;48.974;8.452;2022-12-18T00:24:10;84.77;;;36.57;;
34571;SDS011;20808;48.974;8.452;2022-12-18T00:26:38;82.93;;;36.90;;
34571;SDS011;20808;48.974;8.452;2022-12-18T00:29:06;90.40;;;38.23;;
34571;SDS011;20808;48.974;8.452;2022-12-18T00:31:37;87.20;;;38.20;;
34571;SDS011;20808;48.974;8.452;2022-12-18T00:34:04;87.50;;;38.40;;
34571;SDS011;20808;48.974;8.452;2022-12-18T00:36:32;81.23;;;37.63;;
34571;SDS011;20808;48.974;8.452;2022-12-18T00:39:01;89.80;;;39.90;;
34571;SDS011;20808;48.974;8.452;2022-12-18T00:41:30;78.07;;;36.80;;
34571;SDS011;20808;48.974;8.452;2022-12-18T00:44:16;85.87;;;37.10;;
34571;SDS011;20808;48.974;8.452;2022-12-18T00:46:45;77.70;;;39.80;;
34571;SDS011;20808;48.974;8.452;2022-12-18T00:49:12;78.03;;;35.07;;
34571;SDS011;20808;48.974;8.452;2022-12-18T00:51:40;73.77;;;34.77;;
34571;SDS011;20808;48.974;8.452;2022-12-18T00:54:07;73.70;;;34.80;;
34571;SDS011;20808;48.974;8.452;2022-12-18T00:56:34;79.23;;;35.80;;
34571;SDS011;20808;48.974;8.452;2022-12-18T00:59:02;67.70;;;33.37;;
34571;SDS011;20808;48.974;8.452;2022-12-18T01:01:29;74.93;;;35.90;;
34571;SDS011;20808;48.974;8.452;2022-12-18T01:03:57;76.80;;;34.80;;
34571;SDS011;20808;48.974;8.452;2022-12-18T01:06:25;69.80;;;33.70;;
34571;SDS011;20808;48.974;8.452;2022-12-18T01:08:52;73.50;;;35.33;;
34571;SDS011;20808;48.974;8.452;2022-12-18T01:11:19;68.33;;;34.60;;
34571;SDS011;20808;48.974;8.452;2022-12-18T01:13:46;74.23;;;33.23;;
34571;SDS011;20808;48.974;8.452;2022-12-18T01:16:14;75.13;;;33.30;;
34571;SDS011;20808;48.974;8.452;2022-12-18T01:18:42;72.90;;;33.40;;
34571;SDS011;20808;48.974;8.452;2022-12-18T01:21:12;76.50;;;33.07;;
34571;SDS011;20808;48.974;8.452;2022-12-18T01:23:40;75.50;;;33.53;;
34571;SDS011;20808;48.974;8.452;2022-12-18T01:26:14;72.70;;;34.40;;
34571;SDS011;20808;48.974;8.452;2022-12-18T01:28:42;76.17;;;34.20;;
34571;SDS011;20808;48.974;8.452;2022-12-18T01:31:13;88.20;;;37.20;;
34571;SDS011;20808;48.974;8.452;2022-12-18T01:33:44;81.93;;;35.97;;
34571;SDS011;20808;48.974;8.452;2022-12-18T01:36:16;77.13;;;37.20;;
34571;SDS011;20808;48.974;8.452;2022-12-18T01:38:44;85.33;;;37.50;;
34571;SDS011;20808;48.974;8.452;2022-12-18T01:41:12;77.20;;;36.73;;
34571;SDS011;20808;48.974;8.452;2022-12-18T01:43:43;72.03;;;34.40;;
34571;SDS011;20808;48.974;8.452;2022-12-18T01:46:11;74.93;;;35.17;;
34571;SDS011;20808;48.974;8.452;2022-12-18T01:48:38;79.47;;;37.23;;
34571;SDS011;20808;48.974;8.452;2022-12-18T01:51:06;91.23;;;38.30;;
34571;SDS011;20808;48.974;8.452;2022-12-18T01:53:37;75.67;;;36.50;;
34571;SDS011;20808;48.974;8.452;2022-12-18T01:56:06;83.90;;;38.87;;
34571;SDS011;20808;48.974;8.452;2022-12-18T01:58:35;84.73;;;40.60;;
34571;SDS011;20808;48.974;8.452;2022-12-18T02:01:07;97.00;;;41.10;;
34571;SDS011;20808;48.974;8.452;2022-12-18T02:03:34;84.13;;;39.77;;
34571;SDS011;20808;48.974;8.452;2022-12-18T02:06:03;111.17;;;44.37;;
34571;SDS011;20808;48.974;8.452;2022-12-18T02:08:38;75.53;;;36.50;;
34571;SDS011;20808;48.974;8.452;2022-12-18T02:11:14;92.70;;;38.37;;
34571;SDS011;20808;48.974;8.452;2022-12-18T02:13:50;83.33;;;37.90;;
34571;SDS011;20808;48.974;8.452;2022-12-18T02:16:25;86.80;;;40.87;;
34571;SDS011;20808;48.974;8.452;2022-12-18T02:18:59;88.60;;;40.40;;
34571;SDS011;20808;48.974;8.452;2022-12-18T02:21:32;88.80;;;39.80;;
34571;SDS011;20808;48.974;8.452;2022-12-18T02:24:22;89.60;;;40.23;;
34571;SDS011;20808;48.974;8.452;2022-12-18T02:26:57;83.27;;;37.20;;
34571;SDS011;20808;48.974;8.452;2022-12-18T02:29:28;84.10;;;38.90;;
34571;SDS011;20808;48.974;8.452;2022-12-18T02:31:58;86.50;;;39.30;;
34571;SDS011;20808;48.974;8.452;2022-12-18T02:34:27;88.70;;;39.30;;
34571;SDS011;20808;48.974;8.452;2022-12-18T02:36:57;79.43;;;39.17;;
34571;SDS011;20808;48.974;8.452;2022-12-18T02:39:27;75.80;;;36.27;;
34571;SDS011;20808;48.974;8.452;2022-12-18T02:41:57;84.60;;;37.57;;
34571;SDS011;20808;48.974;8.452;2022-12-18T02:44:27;71.37;;;34.27;;
34571;SDS011;20808;48.974;8.452;2022-12-18T02:46:54;81.87;;;37.20;;
34571;SDS011;20808;48.974;8.452;2022-12-18T02:49:23;97.00;;;39.30;;
34571;SDS011;20808;48.974;8.452;2022-12-18T02:52:01;85.37;;;37.30;;
34571;SDS011;20808;48.974;8.452;2022-12-18T02:54:35;96.80;;;41.77;;
34571;SDS011;20808;48.974;8.452;2022-12-18T02:57:15;96.40;;;41.13;;
34571;SDS011;20808;48.974;8.452;2022-12-18T02:59:50;90.83;;;39.37;;
34571;SDS011;20808;48.974;8.452;2022-12-18T03:02:25;84.13;;;37.37;;
34571;SDS011;20808;48.974;8.452;2022-12-18T03:04:58;83.53;;;37.97;;
34571;SDS011;20808;48.974;8.452;2022-12-18T03:07:33;85.33;;;38.60;;
34571;SDS011;20808;48.974;8.452;2022-12-18T03:10:03;83.07;;;36.40;;
34571;SDS011;20808;48.974;8.452;2022-12-18T03:12:37;79.80;;;37.53;;
34571;SDS011;20808;48.974;8.452;2022-12-18T03:15:09;86.53;;;37.27;;
34571;SDS011;20808;48.974;8.452;2022-12-18T03:17:39;87.60;;;36.57;;
34571;SDS011;20808;48.974;8.452;2022-12-18T03:20:12;76.37;;;36.17;;
34571;SDS011;20808;48.974;8.452;2022-12-18T03:22:43;80.67;;;36.93;;
34571;SDS011;20808;48.974;8.452;2022-12-18T03:25:15;86.70;;;38.90;;
34571;SDS011;20808;48.974;8.452;2022-12-18T03:27:46;79.00;;;37.13;;
34571;SDS011;20808;48.974;8.452;2022-12-18T03:30:17;87.43;;;37.80;;
34571;SDS011;20808;48.974;8.452;2022-12-18T03:32:46;86.63;;;37.70;;
34571;SDS011;20808;48.974;8.452;2022-12-18T03:35:19;81.00;;;36.70;;
34571;SDS011;20808;48.974;8.452;2022-12-18T03:37:48;83.93;;;36.43;;
34571;SDS011;20808;48.974;8.452;2022-12-18T03:40:15;80.83;;;37.27;;
34571;SDS011;20808;48.974;8.452;2022-12-18T03:42:44;86.20;;;37.40;;
34571;SDS011;20808;48.974;8.452;2022-12-18T03:45:18;75.57;;;37.10;;
34571;SDS011;20808;48.974;8.452;2022-12-18T03:47:51;83.87;;;39.50;;
34571;SDS011;20808;48.974;8.452;2022-12-18T03:50:26;84.87;;;36.37;;
34571;SDS011;20808;48.974;8.452;2022-12-18T03:52:57;85.50;;;36.90;;
34571;SDS011;20808;48.974;8.452;2022-12-18T03:55:29;98.27;;;38.67;;
34571;SDS011;20808;48.974;8.452;2022-12-18T03:58:01;93.33;;;39.30;;
34571;SDS011;20808;48.974;8.452;2022-12-18T04:00:30;86.83;;;37.43;;
34571;SDS011;20808;48.974;8.452;2022-12-18T04:02:59;87.23;;;38.67;;
34571;SDS011;20808;48.974;8.452;2022-12-18T04:05:28;87.73;;;37.67;;
34571;SDS011;20808;48.974;8.452;2022-12-18T04:07:56;102.77;;;40.20;;
34571;SDS011;20808;48.974;8.452;2022-12-18T04:10:23;91.97;;;38.60;;
34571;SDS011;20808;48.974;8.452;2022-12-18T04:12:50;90.30;;;39.30;;
34571;SDS011;20808;48.974;8.452;2022-12-18T04:15:18;96.73;;;41.33;;
34571;SDS011;20808;48.974;8.452;2022-12-18T04:17:46;100.70;;;40.50;;
34571;SDS011;20808;48.974;8.452;2022-12-18T04:20:15;106.63;;;42.27;;
34571;SDS011;20808;48.974;8.452;2022-12-18T04:22:42;102.43;;;40.87;;
34571;SDS011;20808;48.974;8.452;2022-12-18T04:25:09;99.73;;;39.80;;
34571;SDS011;20808;48.974;8.452;2022-12-18T04:27:38;109.30;;;41.53;;
34571;SDS011;20808;48.974;8.452;2022-12-18T04:30:05;111.30;;;42.03;;
34571;SDS011;20808;48.974;8.452;2022-12-18T04:32:34;91.00;;;39.03;;
34571;SDS011;20808;48.974;8.452;2022-12-18T04:35:01;102.07;;;38.10;;
34571;SDS011;20808;48.974;8.452;2022-12-18T04:37:29;122.20;;;40.73;;
34571;SDS011;20808;48.974;8.452;2022-12-18T04:39:56;104.27;;;41.00;;
34571;SDS011;20808;48.974;8.452;2022-12-18T04:42:22;106.33;;;43.80;;
34571;SDS011;20808;48.974;8.452;2022-12-18T04:44:49;110.77;;;40.00;;
34571;SDS011;20808;48.974;8.452;2022-12-18T04:47:16;109.63;;;39.33;;
34571;SDS011;20808;48.974;8.452;2022-12-18T04:49:44;118.13;;;42.10;;
34571;SDS011;20808;48.974;8.452;2022-12-18T04:52:11;114.63;;;41.80;;
34571;SDS011;20808;48.974;8.452;2022-12-18T04:54:37;112.07;;;43.20;;
34571;SDS011;20808;48.974;8.452;2022-12-18T04:57:04;110.40;;;40.50;;
34571;SDS011;20808;48.974;8.452;2022-12-18T04:59:31;103.17;;;40.93;;
34571;SDS011;20808;48.974;8.452;2022-12-18T05:01:58;96.80;;;40.67;;
34571;SDS011;20808;48.974;8.452;2022-12-18T05:04:24;113.53;;;40.83;;
34571;SDS011;20808;48.974;8.452;2022-12-18T05:06:53;93.47;;;38.80;;
34571;SDS011;20808;48.974;8.452;2022-12-18T05:09:19;99.73;;;39.27;;
34571;SDS011;20808;48.974;8.452;2022-12-18T05:11:46;109.10;;;40.73;;
34571;SDS011;20808;48.974;8.452;2022-12-18T05:14:13;99.80;;;37.80;;
34571;SDS011;20808;48.974;8.452;2022-12-18T05:16:41;104.83;;;37.93;;
34571;SDS011;20808;48.974;8.452;2022-12-18T05:19:08;91.03;;;37.80;;
34571;SDS011;20808;48.974;8.452;2022-12-18T05:21:34;96.00;;;39.03;;
34571;SDS011;20808;48.974;8.452;2022-12-18T05:24:03;101.47;;;37.40;;
34571;SDS011;20808;48.974;8.452;2022-12-18T05:26:33;100.33;;;39.17;;
34571;SDS011;20808;48.974;8.452;2022-12-18T05:28:59;100.87;;;37.63;;
34571;SDS011;20808;48.974;8.452;2022-12-18T05:31:26;106.77;;;37.40;;
34571;SDS011;20808;48.974;8.452;2022-12-18T05:33:53;114.37;;;38.50;;
34571;SDS011;20808;48.974;8.452;2022-12-18T05:36:20;90.63;;;36.33;;
34571;SDS011;20808;48.974;8.452;2022-12-18T05:38:46;98.23;;;38.07;;
34571;SDS011;20808;48.974;8.452;2022-12-18T05:41:15;95.93;;;38.70;;
34571;SDS011;20808;48.974;8.452;2022-12-18T05:43:42;94.13;;;38.10;;
34571;SDS011;20808;48.974;8.452;2022-12-18T05:46:11;85.13;;;35.60;;
34571;SDS011;20808;48.974;8.452;2022-12-18T05:48:38;93.87;;;39.13;;
34571;SDS011;20808;48.974;8.452;2022-12-18T05:51:06;103.30;;;37.50;;
34571;SDS011;20808;48.974;8.452;2022-12-18T05:53:35;102.60;;;40.70;;
34571;SDS011;20808;48.974;8.452;2022-12-18T05:56:02;88.97;;;37.63;;
34571;SDS011;20808;48.974;8.452;2022-12-18T05:58:34;96.53;;;38.10;;
34571;SDS011;20808;48.974;8.452;2022-12-18T06:01:05;97.80;;;37.27;;
34571;SDS011;20808;48.974;8.452;2022-12-18T06:03:34;107.97;;;42.77;;
34571;SDS011;20808;48.974;8.452;2022-12-18T06:06:01;95.27;;;39.10;;
34571;SDS011;20808;48.974;8.452;2022-12-18T06:08:28;97.37;;;38.10;;
34571;SDS011;20808;48.974;8.452;2022-12-18T06:10:55;80.10;;;36.67;;
34571;SDS011;20808;48.974;8.452;2022-12-18T06:13:22;83.17;;;36.80;;
34571;SDS011;20808;48.974;8.452;2022-12-18T06:15:50;76.20;;;35.10;;
34571;SDS011;20808;48.974;8.452;2022-12-18T06:18:16;79.80;;;34.87;;
34571;SDS011;20808;48.974;8.452;2022-12-18T06:20:43;81.30;;;35.00;;
34571;SDS011;20808;48.974;8.452;2022-12-18T06:23:10;86.90;;;33.83;;
34571;SDS011;20808;48.974;8.452;2022-12-18T06:25:37;76.20;;;34.30;;
34571;SDS011;20808;48.974;8.452;2022-12-18T06:28:05;80.30;;;34.80;;
34571;SDS011;20808;48.974;8.452;2022-12-18T06:30:32;75.70;;;34.73;;
34571;SDS011;20808;48.974;8.452;2022-12-18T06:33:00;74.47;;;33.90;;
34571;SDS011;20808;48.974;8.452;2022-12-18T06:35:27;73.33;;;32.80;;
34571;SDS011;20808;48.974;8.452;2022-12-18T06:37:53;76.37;;;33.33;;
34571;SDS011;20808;48.974;8.452;2022-12-18T06:40:20;72.67;;;32.07;;
34571;SDS011;20808;48.974;8.452;2022-12-18T06:42:47;84.87;;;33.77;;
34571;SDS011;20808;48.974;8.452;2022-12-18T06:45:14;72.20;;;34.37;;
34571;SDS011;20808;48.974;8.452;2022-12-18T06:47:41;71.77;;;33.30;;
34571;SDS011;20808;48.974;8.452;2022-12-18T06:50:28;79.30;;;36.57;;
34571;SDS011;20808;48.974;8.452;2022-12-18T06:52:54;78.07;;;32.67;;
34571;SDS011;20808;48.974;8.452;2022-12-18T06:55:21;78.23;;;34.27;;
34571;SDS011;20808;48.974;8.452;2022-12-18T06:57:48;76.47;;;34.03;;
34571;SDS011;20808;48.974;8.452;2022-12-18T07:00:15;81.03;;;35.00;;
34571;SDS011;20808;48.974;8.452;2022-12-18T07:02:42;78.23;;;34.30;;
34571;SDS011;20808;48.974;8.452;2022-12-18T07:05:09;77.83;;;34.23;;
34571;SDS011;20808;48.974;8.452;2022-12-18T07:07:37;74.40;;;34.00;;
34571;SDS011;20808;48.974;8.452;2022-12-18T07:10:04;79.23;;;35.60;;
34571;SDS011;20808;48.974;8.452;2022-12-18T07:12:51;70.07;;;33.10;;
34571;SDS011;20808;48.974;8.452;2022-12-18T07:15:18;80.10;;;34.43;;
34571;SDS011;20808;48.974;8.452;2022-12-18T07:17:45;80.63;;;34.10;;
34571;SDS011;20808;48.974;8.452;2022-12-18T07:20:11;86.23;;;34.40;;
34571;SDS011;20808;48.974;8.452;2022-12-18T07:22:40;82.87;;;34.93;;
34571;SDS011;20808;48.974;8.452;2022-12-18T07:25:07;87.90;;;34.87;;
34571;SDS011;20808;48.974;8.452;2022-12-18T07:27:34;80.00;;;36.10;;
34571;SDS011;20808;48.974;8.452;2022-12-18T07:30:01;72.33;;;35.50;;
34571;SDS011;20808;48.974;8.452;2022-12-18T07:32:27;83.13;;;35.83;;
34571;SDS011;20808;48.974;8.452;2022-12-18T07:34:56;82.03;;;33.87;;
34571;SDS011;20808;48.974;8.452;2022-12-18T07:37:22;78.97;;;34.30;;
34571;SDS011;20808;48.974;8.452;2022-12-18T07:39:50;80.07;;;34.13;;
34571;SDS011;20808;48.974;8.452;2022-12-18T07:42:17;81.60;;;33.60;;
34571;SDS011;20808;48.974;8.452;2022-12-18T07:45:00;134.70;;;53.80;;
34571;SDS011;20808;48.974;8.452;2022-12-18T07:47:28;90.20;;;37.20;;
34571;SDS011;20808;48.974;8.452;2022-12-18T07:49:59;82.83;;;37.50;;
34571;SDS011;20808;48.974;8.452;2022-12-18T07:52:26;100.57;;;39.80;;
34571;SDS011;20808;48.974;8.452;2022-12-18T07:54:54;87.53;;;36.23;;
34571;SDS011;20808;48.974;8.452;2022-12-18T07:57:21;99.43;;;35.20;;
34571;SDS011;20808;48.974;8.452;2022-12-18T07:59:48;87.27;;;35.83;;
34571;SDS011;20808;48.974;8.452;2022-12-18T08:02:15;91.23;;;35.03;;
34571;SDS011;20808;48.974;8.452;2022-12-18T08:04:41;90.90;;;32.77;;
34571;SDS011;20808;48.974;8.452;2022-12-18T08:07:08;90.27;;;33.20;;
34571;SDS011;20808;48.974;8.452;2022-12-18T08:09:35;91.00;;;34.23;;
34571;SDS011;20808;48.974;8.452;2022-12-18T08:12:03;82.93;;;33.30;;
34571;SDS011;20808;48.974;8.452;2022-12-18T08:14:31;100.97;;;33.60;;
34571;SDS011;20808;48.974;8.452;2022-12-18T08:16:58;98.27;;;34.47;;
34571;SDS011;20808;48.974;8.452;2022-12-18T08:19:24;88.93;;;34.17;;
34571;SDS011;20808;48.974;8.452;2022-12-18T08:21:51;94.23;;;33.23;;
34571;SDS011;20808;48.974;8.452;2022-12-18T08:24:18;90.90;;;33.37;;
34571;SDS011;20808;48.974;8.452;2022-12-18T08:26:45;93.50;;;33.33;;
34571;SDS011;20808;48.974;8.452;2022-12-18T08:29:13;84.80;;;33.53;;
34571;SDS011;20808;48.974;8.452;2022-12-18T08:31:40;97.97;;;33.13;;
34571;SDS011;20808;48.974;8.452;2022-12-18T08:34:07;87.30;;;33.20;;
34571;SDS011;20808;48.974;8.452;2022-12-18T08:36:34;84.43;;;32.83;;
34571;SDS011;20808;48.974;8.452;2022-12-18T08:39:01;85.57;;;32.07;;
34571;SDS011;20808;48.974;8.452;2022-12-18T08:41:28;96.60;;;35.70;;
34571;SDS011;20808;48.974;8.452;2022-12-18T08:43:54;85.93;;;33.10;;
34571;SDS011;20808;48.974;8.452;2022-12-18T08:46:40;96.97;;;33.87;;
34571;SDS011;20808;48.974;8.452;2022-12-18T08:49:10;87.53;;;33.97;;
34571;SDS011;20808;48.974;8.452;2022-12-18T08:51:37;96.27;;;34.07;;
34571;SDS011;20808;48.974;8.452;2022-12-18T08:54:05;88.00;;;33.90;;
34571;SDS011;20808;48.974;8.452;2022-12-18T08:56:32;81.33;;;33.37;;
34571;SDS011;20808;48.974;8.452;2022-12-18T08:58:59;85.27;;;33.40;;
34571;SDS011;20808;48.974;8.452;2022-12-18T09:01:26;93.53;;;34.10;;
34571;SDS011;20808;48.974;8.452;2022-12-18T09:03:54;80.77;;;33.07;;
34571;SDS011;20808;48.974;8.452;2022-12-18T09:06:22;87.07;;;36.30;;
34571;SDS011;20808;48.974;8.452;2022-12-18T09:08:49;86.63;;;34.17;;
34571;SDS011;20808;48.974;8.452;2022-12-18T09:11:19;91.97;;;36.57;;
34571;SDS011;20808;48.974;8.452;2022-12-18T09:13:48;91.07;;;32.73;;
34571;SDS011;20808;48.974;8.452;2022-12-18T09:16:15;85.67;;;34.03;;
34571;SDS011;20808;48.974;8.452;2022-12-18T09:18:42;81.50;;;31.17;;
34571;SDS011;20808;48.974;8.452;2022-12-18T09:21:12;91.47;;;34.47;;
34571;SDS011;20808;48.974;8.452;2022-12-18T09:23:42;94.03;;;39.33;;
34571;SDS011;20808;48.974;8.452;2022-12-18T09:26:09;85.20;;;34.40;;
34571;SDS011;20808;48.974;8.452;2022-12-18T09:28:36;88.53;;;35.57;;
34571;SDS011;20808;48.974;8.452;2022-12-18T09:31:04;92.80;;;37.27;;
34571;SDS011;20808;48.974;8.452;2022-12-18T09:33:32;98.50;;;36.13;;
34571;SDS011;20808;48.974;8.452;2022-12-18T09:36:00;104.50;;;39.57;;
34571;SDS011;20808;48.974;8.452;2022-12-18T09:38:30;105.03;;;40.53;;
34571;SDS011;20808;48.974;8.452;2022-12-18T09:40:59;95.20;;;37.10;;
34571;SDS011;20808;48.974;8.452;2022-12-18T09:43:33;108.00;;;38.90;;
34571;SDS011;20808;48.974;8.452;2022-12-18T09:46:07;93.57;;;39.97;;
34571;SDS011;20808;48.974;8.452;2022-12-18T09:48:38;93.00;;;37.80;;
34571;SDS011;20808;48.974;8.452;2022-12-18T09:51:10;93.30;;;36.93;;
34571;SDS011;20808;48.974;8.452;2022-12-18T09:53:43;85.47;;;34.03;;
34571;SDS011;20808;48.974;8.452;2022-12-18T09:56:16;81.60;;;33.70;;
34571;SDS011;20808;48.974;8.452;2022-12-18T09:58:45;82.83;;;34.33;;
34571;SDS011;20808;48.974;8.452;2022-12-18T10:01:18;87.77;;;33.17;;
34571;SDS011;20808;48.974;8.452;2022-12-18T10:03:48;87.20;;;33.97;;
34571;SDS011;20808;48.974;8.452;2022-12-18T10:06:16;75.13;;;33.07;;
34571;SDS011;20808;48.974;8.452;2022-12-18T10:08:51;73.17;;;31.17;;
34571;SDS011;20808;48.974;8.452;2022-12-18T10:11:27;85.53;;;33.27;;
34571;SDS011;20808;48.974;8.452;2022-12-18T10:14:01;80.33;;;32.70;;
34571;SDS011;20808;48.974;8.452;2022-12-18T10:16:35;76.27;;;32.00;;
34571;SDS011;20808;48.974;8.452;2022-12-18T10:19:15;65.33;;;30.00;;
34571;SDS011;20808;48.974;8.452;2022-12-18T10:21:50;73.17;;;32.07;;
34571;SDS011;20808;48.974;8.452;2022-12-18T10:24:25;82.43;;;34.03;;
34571;SDS011;20808;48.974;8.452;2022-12-18T10:26:58;77.50;;;33.10;;
34571;SDS011;20808;48.974;8.452;2022-12-18T10:29:35;82.43;;;31.30;;
34571;SDS011;20808;48.974;8.452;2022-12-18T10:32:03;78.47;;;32.60;;
34571;SDS011;20808;48.974;8.452;2022-12-18T10:34:30;78.93;;;34.00;;
34571;SDS011;20808;48.974;8.452;2022-12-18T10:36:57;82.50;;;31.90;;
34571;SDS011;20808;48.974;8.452;2022-12-18T10:39:27;86.10;;;33.80;;
34571;SDS011;20808;48.974;8.452;2022-12-18T10:41:59;80.40;;;33.13;;
34571;SDS011;20808;48.974;8.452;2022-12-18T10:44:38;81.30;;;34.57;;
34571;SDS011;20808;48.974;8.452;2022-12-18T10:47:06;73.20;;;31.27;;
34571;SDS011;20808;48.974;8.452;2022-12-18T10:49:39;85.70;;;34.43;;
34571;SDS011;20808;48.974;8.452;2022-12-18T10:52:14;82.27;;;33.80;;
34571;SDS011;20808;48.974;8.452;2022-12-18T10:54:48;77.97;;;31.27;;
34571;SDS011;20808;48.974;8.452;2022-12-18T10:57:17;92.07;;;33.90;;
34571;SDS011;20808;48.974;8.452;2022-12-18T10:59:56;80.33;;;33.17;;
34571;SDS011;20808;48.974;8.452;2022-12-18T11:02:25;77.57;;;33.90;;
34571;SDS011;20808;48.974;8.452;2022-12-18T11:04:59;94.03;;;35.97;;
34571;SDS011;20808;48.974;8.452;2022-12-18T11:07:47;78.90;;;32.97;;
34571;SDS011;20808;48.974;8.452;2022-12-18T11:10:28;72.97;;;32.27;;
34571;SDS011;20808;48.974;8.452;2022-12-18T11:13:08;84.20;;;29.67;;
34571;SDS011;20808;48.974;8.452;2022-12-18T11:15:39;74.47;;;32.80;;
34571;SDS011;20808;48.974;8.452;2022-12-18T11:18:14;70.67;;;29.63;;
34571;SDS011;20808;48.974;8.452;2022-12-18T11:20:43;80.27;;;32.60;;
34571;SDS011;20808;48.974;8.452;2022-12-18T11:23:17;68.20;;;28.40;;
34571;SDS011;20808;48.974;8.452;2022-12-18T11:25:51;99.77;;;37.83;;
34571;SDS011;20808;48.974;8.452;2022-12-18T11:31:23;60.20;;;28.10;;
34571;SDS011;20808;48.974;8.452;2022-12-18T11:34:01;64.60;;;28.70;;
34571;SDS011;20808;48.974;8.452;2022-12-18T11:36:34;67.07;;;29.50;;
34571;SDS011;20808;48.974;8.452;2022-12-18T11:39:07;71.30;;;33.17;;
34571;SDS011;20808;48.974;8.452;2022-12-18T11:41:43;70.67;;;31.63;;
34571;SDS011;20808;48.974;8.452;2022-12-18T11:44:35;69.03;;;29.67;;
34571;SDS011;20808;48.974;8.452;2022-12-18T11:47:09;74.57;;;31.47;;
34571;SDS011;20808;48.974;8.452;2022-12-18T11:49:45;77.20;;;32.07;;
34571;SDS011;20808;48.974;8.452;2022-12-18T11:52:16;72.50;;;29.87;;
34571;SDS011;20808;48.974;8.452;2022-12-18T11:54:50;80.70;;;36.63;;
34571;SDS011;20808;48.974;8.452;2022-12-18T11:57:21;71.87;;;31.27;;
34571;SDS011;20808;48.974;8.452;2022-12-18T11:59:58;72.50;;;30.50;;
34571;SDS011;20808;48.974;8.452;2022-12-18T12:02:35;73.67;;;29.57;;
34571;SDS011;20808;48.974;8.452;2022-12-18T12:05:13;68.00;;;30.80;;
34571;SDS011;20808;48.974;8.452;2022-12-18T12:07:51;70.37;;;29.70;;
34571;SDS011;20808;48.974;8.452;2022-12-18T12:10:28;58.80;;;26.73;;
34571;SDS011;20808;48.974;8.452;2022-12-18T12:13:12;63.20;;;28.20;;
34571;SDS011;20808;48.974;8.452;2022-12-18T12:15:50;67.23;;;28.90;;
34571;SDS011;20808;48.974;8.452;2022-12-18T12:18:32;66.43;;;29.80;;
34571;SDS011;20808;48.974;8.452;2022-12-18T12:21:09;53.90;;;26.17;;
34571;SDS011;20808;48.974;8.452;2022-12-18T12:23:45;60.43;;;27.93;;
34571;SDS011;20808;48.974;8.452;2022-12-18T12:26:23;64.73;;;29.40;;
34571;SDS011;20808;48.974;8.452;2022-12-18T12:29:03;63.40;;;28.27;;
34571;SDS011;20808;48.974;8.452;2022-12-18T12:31:45;63.77;;;27.90;;
34571;SDS011;20808;48.974;8.452;2022-12-18T12:34:21;65.57;;;29.40;;
34571;SDS011;20808;48.974;8.452;2022-12-18T12:39:41;66.23;;;28.73;;
34571;SDS011;20808;48.974;8.452;2022-12-18T12:42:13;62.27;;;28.00;;
34571;SDS011;20808;48.974;8.452;2022-12-18T12:45:04;64.97;;;27.67;;
34571;SDS011;20808;48.974;8.452;2022-12-18T12:47:33;67.33;;;29.30;;
34571;SDS011;20808;48.974;8.452;2022-12-18T12:50:05;59.70;;;28.10;;
34571;SDS011;20808;48.974;8.452;2022-12-18T12:52:41;113.27;;;41.93;;
34571;SDS011;20808;48.974;8.452;2022-12-18T12:55:13;135.30;;;44.33;;
34571;SDS011;20808;48.974;8.452;2022-12-18T12:57:45;73.43;;;29.50;;
34571;SDS011;20808;48.974;8.452;2022-12-18T13:00:18;67.83;;;28.57;;
34571;SDS011;20808;48.974;8.452;2022-12-18T13:02:47;55.77;;;27.43;;
34571;SDS011;20808;48.974;8.452;2022-12-18T13:05:19;68.63;;;29.97;;
34571;SDS011;20808;48.974;8.452;2022-12-18T13:07:50;60.93;;;26.40;;
34571;SDS011;20808;48.974;8.452;2022-12-18T13:10:26;65.60;;;28.63;;
34571;SDS011;20808;48.974;8.452;2022-12-18T13:13:16;64.33;;;27.53;;
34571;SDS011;20808;48.974;8.452;2022-12-18T13:16:04;54.60;;;28.17;;
34571;SDS011;20808;48.974;8.452;2022-12-18T13:18:52;63.47;;;27.37;;
34571;SDS011;20808;48.974;8.452;2022-12-18T13:21:40;74.03;;;28.90;;
34571;SDS011;20808;48.974;8.452;2022-12-18T13:24:26;60.20;;;28.57;;
34571;SDS011;20808;48.974;8.452;2022-12-18T13:30:41;72.53;;;31.50;;
34571;SDS011;20808;48.974;8.452;2022-12-18T13:33:38;62.33;;;28.17;;
34571;SDS011;20808;48.974;8.452;2022-12-18T13:36:30;64.40;;;27.70;;
34571;SDS011;20808;48.974;8.452;2022-12-18T13:39:22;61.83;;;28.67;;
34571;SDS011;20808;48.974;8.452;2022-12-18T13:45:41;68.40;;;29.43;;
34571;SDS011;20808;48.974;8.452;2022-12-18T13:48:29;66.83;;;30.07;;
34571;SDS011;20808;48.974;8.452;2022-12-18T13:51:19;63.97;;;31.03;;
34571;SDS011;20808;48.974;8.452;2022-12-18T13:54:06;73.83;;;34.93;;
34571;SDS011;20808;48.974;8.452;2022-12-18T13:57:01;79.70;;;32.00;;
34571;SDS011;20808;48.974;8.452;2022-12-18T13:59:48;73.20;;;32.10;;
34571;SDS011;20808;48.974;8.452;2022-12-18T14:02:34;67.30;;;31.20;;
34571;SDS011;20808;48.974;8.452;2022-12-18T14:05:21;74.90;;;31.67;;
34571;SDS011;20808;48.974;8.452;2022-12-18T14:08:10;65.53;;;29.80;;
34571;SDS011;20808;48.974;8.452;2022-12-18T14:10:57;62.43;;;28.43;;
34571;SDS011;20808;48.974;8.452;2022-12-18T14:13:43;73.00;;;31.03;;
34571;SDS011;20808;48.974;8.452;2022-12-18T14:16:28;60.13;;;29.63;;
34571;SDS011;20808;48.974;8.452;2022-12-18T14:19:16;68.30;;;29.20;;
34571;SDS011;20808;48.974;8.452;2022-12-18T14:22:03;64.80;;;30.63;;
34571;SDS011;20808;48.974;8.452;2022-12-18T14:25:04;63.37;;;28.60;;
34571;SDS011;20808;48.974;8.452;2022-12-18T14:28:02;63.33;;;28.83;;
34571;SDS011;20808;48.974;8.452;2022-12-18T14:31:00;67.67;;;30.70;;
34571;SDS011;20808;48.974;8.452;2022-12-18T14:33:45;70.30;;;30.70;;
34571;SDS011;20808;48.974;8.452;2022-12-18T14:36:30;65.43;;;30.23;;
34571;SDS011;20808;48.974;8.452;2022-12-18T14:39:16;65.53;;;31.33;;
34571;SDS011;20808;48.974;8.452;2022-12-18T14:42:04;67.67;;;29.83;;
34571;SDS011;20808;48.974;8.452;2022-12-18T14:44:50;71.40;;;31.57;;
34571;SDS011;20808;48.974;8.452;2022-12-18T14:47:35;71.23;;;31.30;;
34571;SDS011;20808;48.974;8.452;2022-12-18T14:50:21;62.93;;;30.73;;
34571;SDS011;20808;48.974;8.452;2022-12-18T14:53:16;64.70;;;30.77;;
34571;SDS011;20808;48.974;8.452;2022-12-18T14:56:12;73.97;;;31.33;;
34571;SDS011;20808;48.974;8.452;2022-12-18T14:59:02;68.43;;;31.30;;
34571;SDS011;20808;48.974;8.452;2022-12-18T15:01:53;67.87;;;29.93;;
34571;SDS011;20808;48.974;8.452;2022-12-18T15:04:43;72.17;;;31.07;;